Ellezelles, Belgium
Current Conditions -  °F | °C
As of 2:25 PM on Sunday 25 Jan 2015 (Local Time) from EBCV Reporting Station
Broken Clouds Broken Clouds  
Wind Chill: 36°   Ceiling: 7500
Heat Index: 41°   Visibility: 6mi
Dew Point: 36°   Wind: 8mph
Humidity: 81%   Direction: 250°WSW
Pressure: 30.48"   Gusts: NA
Location:  50.74°N, 3.68°E
Report Text: EBCV 251325Z AUTO 25007KT 9999 BKN075/// 05/02 Q1032 BLU
Loading
Personal Weather Stations






























Interactive Weather Map New forecast layout! Learn more

10-Day Weather Forecast

Advertisements
Track Severe Weather on mobile